sensor_id;sensor_type;location;lat;lon;timestamp;temperature;humidity
22787;DHT22;63134;52.020;4.714;2023-01-28T00:00:50;5.30;86.70
22787;DHT22;63134;52.020;4.714;2023-01-28T00:03:35;5.30;86.60
22787;DHT22;63134;52.020;4.714;2023-01-28T00:06:21;5.30;86.50
22787;DHT22;63134;52.020;4.714;2023-01-28T00:09:07;5.30;86.60
22787;DHT22;63134;52.020;4.714;2023-01-28T00:11:53;5.30;86.50
22787;DHT22;63134;52.020;4.714;2023-01-28T00:14:38;5.30;86.40
22787;DHT22;63134;52.020;4.714;2023-01-28T00:17:24;5.30;86.50
22787;DHT22;63134;52.020;4.714;2023-01-28T00:20:10;5.30;86.70
22787;DHT22;63134;52.020;4.714;2023-01-28T00:22:56;5.40;86.80
22787;DHT22;63134;52.020;4.714;2023-01-28T00:25:41;5.40;86.60
22787;DHT22;63134;52.020;4.714;2023-01-28T00:28:27;5.30;86.50
22787;DHT22;63134;52.020;4.714;2023-01-28T00:31:24;5.30;86.30
22787;DHT22;63134;52.020;4.714;2023-01-28T00:34:11;5.30;86.40
22787;DHT22;63134;52.020;4.714;2023-01-28T00:36:58;5.30;86.60
22787;DHT22;63134;52.020;4.714;2023-01-28T00:39:44;5.30;86.60
22787;DHT22;63134;52.020;4.714;2023-01-28T00:42:29;5.30;86.60
22787;DHT22;63134;52.020;4.714;2023-01-28T00:45:15;5.30;86.60
22787;DHT22;63134;52.020;4.714;2023-01-28T00:48:01;5.30;86.60
22787;DHT22;63134;52.020;4.714;2023-01-28T00:50:50;5.30;86.60
22787;DHT22;63134;52.020;4.714;2023-01-28T00:53:37;5.30;86.70
22787;DHT22;63134;52.020;4.714;2023-01-28T00:56:23;5.30;86.70
22787;DHT22;63134;52.020;4.714;2023-01-28T00:59:08;5.30;86.80
22787;DHT22;63134;52.020;4.714;2023-01-28T01:01:54;5.30;86.80
22787;DHT22;63134;52.020;4.714;2023-01-28T01:04:57;5.30;86.60
22787;DHT22;63134;52.020;4.714;2023-01-28T01:07:43;5.30;86.50
22787;DHT22;63134;52.020;4.714;2023-01-28T01:10:32;5.30;86.50
22787;DHT22;63134;52.020;4.714;2023-01-28T01:13:22;5.30;86.30
22787;DHT22;63134;52.020;4.714;2023-01-28T01:16:15;5.30;86.20
22787;DHT22;63134;52.020;4.714;2023-01-28T01:19:06;5.30;86.10
22787;DHT22;63134;52.020;4.714;2023-01-28T01:21:53;5.20;85.80
22787;DHT22;63134;52.020;4.714;2023-01-28T01:24:40;5.20;85.80
22787;DHT22;63134;52.020;4.714;2023-01-28T01:27:29;5.20;86.20
22787;DHT22;63134;52.020;4.714;2023-01-28T01:30:16;5.20;86.00
22787;DHT22;63134;52.020;4.714;2023-01-28T01:33:02;5.30;86.00
22787;DHT22;63134;52.020;4.714;2023-01-28T01:35:52;5.30;85.90
22787;DHT22;63134;52.020;4.714;2023-01-28T01:38:39;5.20;85.60
22787;DHT22;63134;52.020;4.714;2023-01-28T01:41:29;5.20;85.70
22787;DHT22;63134;52.020;4.714;2023-01-28T01:50:42;5.30;85.90
22787;DHT22;63134;52.020;4.714;2023-01-28T01:53:33;5.30;85.60
22787;DHT22;63134;52.020;4.714;2023-01-28T01:56:24;5.30;86.30
22787;DHT22;63134;52.020;4.714;2023-01-28T01:59:14;5.30;85.40
22787;DHT22;63134;52.020;4.714;2023-01-28T02:02:04;5.30;85.50
22787;DHT22;63134;52.020;4.714;2023-01-28T02:04:54;5.30;85.40
22787;DHT22;63134;52.020;4.714;2023-01-28T02:07:41;5.30;85.40
22787;DHT22;63134;52.020;4.714;2023-01-28T02:10:34;5.30;85.60
22787;DHT22;63134;52.020;4.714;2023-01-28T02:13:23;5.30;85.60
22787;DHT22;63134;52.020;4.714;2023-01-28T02:16:11;5.30;85.50
22787;DHT22;63134;52.020;4.714;2023-01-28T02:19:00;5.30;85.50
22787;DHT22;63134;52.020;4.714;2023-01-28T02:22:14;5.40;85.40
22787;DHT22;63134;52.020;4.714;2023-01-28T02:31:33;5.30;85.00
22787;DHT22;63134;52.020;4.714;2023-01-28T02:34:28;5.20;84.90
22787;DHT22;63134;52.020;4.714;2023-01-28T02:37:24;5.20;84.90
22787;DHT22;63134;52.020;4.714;2023-01-28T02:40:21;5.20;84.90
22787;DHT22;63134;52.020;4.714;2023-01-28T02:43:09;5.20;84.90
22787;DHT22;63134;52.020;4.714;2023-01-28T02:45:54;5.20;85.10
22787;DHT22;63134;52.020;4.714;2023-01-28T02:48:59;5.20;85.10
22787;DHT22;63134;52.020;4.714;2023-01-28T02:52:01;5.20;85.20
22787;DHT22;63134;52.020;4.714;2023-01-28T02:57:54;5.20;85.30
22787;DHT22;63134;52.020;4.714;2023-01-28T03:00:54;5.20;85.30
22787;DHT22;63134;52.020;4.714;2023-01-28T03:03:53;5.20;85.20
22787;DHT22;63134;52.020;4.714;2023-01-28T03:06:51;5.20;85.00
22787;DHT22;63134;52.020;4.714;2023-01-28T03:09:39;5.20;85.20
22787;DHT22;63134;52.020;4.714;2023-01-28T03:12:27;5.20;85.10
22787;DHT22;63134;52.020;4.714;2023-01-28T03:15:37;5.10;85.10
22787;DHT22;63134;52.020;4.714;2023-01-28T03:18:49;5.10;85.00
22787;DHT22;63134;52.020;4.714;2023-01-28T03:22:02;5.10;85.10
22787;DHT22;63134;52.020;4.714;2023-01-28T03:25:08;5.10;85.00
22787;DHT22;63134;52.020;4.714;2023-01-28T03:28:16;5.10;85.00
22787;DHT22;63134;52.020;4.714;2023-01-28T03:31:23;5.00;84.60
22787;DHT22;63134;52.020;4.714;2023-01-28T03:34:30;5.10;84.80
22787;DHT22;63134;52.020;4.714;2023-01-28T03:37:35;5.00;84.90
22787;DHT22;63134;52.020;4.714;2023-01-28T03:40:29;5.00;84.80
22787;DHT22;63134;52.020;4.714;2023-01-28T03:43:17;5.00;84.80
22787;DHT22;63134;52.020;4.714;2023-01-28T03:46:04;5.00;84.90
22787;DHT22;63134;52.020;4.714;2023-01-28T03:48:50;5.00;84.60
22787;DHT22;63134;52.020;4.714;2023-01-28T03:51:36;5.00;84.30
22787;DHT22;63134;52.020;4.714;2023-01-28T03:54:21;5.00;84.20
22787;DHT22;63134;52.020;4.714;2023-01-28T03:57:07;5.00;83.90
22787;DHT22;63134;52.020;4.714;2023-01-28T03:59:53;5.00;84.00
22787;DHT22;63134;52.020;4.714;2023-01-28T04:02:39;5.00;84.20
22787;DHT22;63134;52.020;4.714;2023-01-28T04:05:28;5.00;84.10
22787;DHT22;63134;52.020;4.714;2023-01-28T04:08:17;4.90;83.80
22787;DHT22;63134;52.020;4.714;2023-01-28T04:11:35;4.90;83.60
22787;DHT22;63134;52.020;4.714;2023-01-28T04:14:22;4.90;83.10
22787;DHT22;63134;52.020;4.714;2023-01-28T04:17:12;4.80;83.10
22787;DHT22;63134;52.020;4.714;2023-01-28T04:20:03;4.80;83.30
22787;DHT22;63134;52.020;4.714;2023-01-28T04:22:48;4.90;83.50
22787;DHT22;63134;52.020;4.714;2023-01-28T04:25:34;4.90;83.40
22787;DHT22;63134;52.020;4.714;2023-01-28T04:28:23;4.90;83.30
22787;DHT22;63134;52.020;4.714;2023-01-28T04:31:09;4.90;83.10
22787;DHT22;63134;52.020;4.714;2023-01-28T04:33:57;4.90;82.70
22787;DHT22;63134;52.020;4.714;2023-01-28T04:36:55;4.80;82.70
22787;DHT22;63134;52.020;4.714;2023-01-28T04:39:59;4.80;82.50
22787;DHT22;63134;52.020;4.714;2023-01-28T04:42:58;4.80;83.00
22787;DHT22;63134;52.020;4.714;2023-01-28T04:45:53;4.80;82.90
22787;DHT22;63134;52.020;4.714;2023-01-28T04:48:59;4.70;82.60
22787;DHT22;63134;52.020;4.714;2023-01-28T04:51:57;4.70;82.50
22787;DHT22;63134;52.020;4.714;2023-01-28T04:54:49;4.70;82.40
22787;DHT22;63134;52.020;4.714;2023-01-28T04:57:34;4.70;82.70
22787;DHT22;63134;52.020;4.714;2023-01-28T05:00:25;4.70;82.50
22787;DHT22;63134;52.020;4.714;2023-01-28T05:03:12;4.70;82.80
22787;DHT22;63134;52.020;4.714;2023-01-28T05:05:58;4.70;82.40
22787;DHT22;63134;52.020;4.714;2023-01-28T05:08:58;4.70;82.60
22787;DHT22;63134;52.020;4.714;2023-01-28T05:11:44;4.70;82.60
22787;DHT22;63134;52.020;4.714;2023-01-28T05:14:31;4.70;82.20
22787;DHT22;63134;52.020;4.714;2023-01-28T05:17:26;4.70;82.40
22787;DHT22;63134;52.020;4.714;2023-01-28T05:20:12;4.70;82.40
22787;DHT22;63134;52.020;4.714;2023-01-28T05:22:58;4.70;82.50
22787;DHT22;63134;52.020;4.714;2023-01-28T05:25:52;4.70;82.60
22787;DHT22;63134;52.020;4.714;2023-01-28T05:28:38;4.70;82.60
22787;DHT22;63134;52.020;4.714;2023-01-28T05:31:25;4.70;82.70
22787;DHT22;63134;52.020;4.714;2023-01-28T05:34:11;4.80;82.50
22787;DHT22;63134;52.020;4.714;2023-01-28T05:36:56;4.80;82.40
22787;DHT22;63134;52.020;4.714;2023-01-28T05:39:51;4.70;82.40
22787;DHT22;63134;52.020;4.714;2023-01-28T05:42:38;4.70;82.70
22787;DHT22;63134;52.020;4.714;2023-01-28T05:46:06;4.80;83.60
22787;DHT22;63134;52.020;4.714;2023-01-28T05:49:16;4.80;82.60
22787;DHT22;63134;52.020;4.714;2023-01-28T05:52:28;4.80;82.80
22787;DHT22;63134;52.020;4.714;2023-01-28T05:55:14;4.80;82.90
22787;DHT22;63134;52.020;4.714;2023-01-28T05:58:00;4.80;83.00
22787;DHT22;63134;52.020;4.714;2023-01-28T06:00:46;4.80;82.40
22787;DHT22;63134;52.020;4.714;2023-01-28T06:03:34;4.80;82.60
22787;DHT22;63134;52.020;4.714;2023-01-28T06:06:20;4.80;82.90
22787;DHT22;63134;52.020;4.714;2023-01-28T06:09:05;4.80;83.00
22787;DHT22;63134;52.020;4.714;2023-01-28T06:11:52;4.80;82.80
22787;DHT22;63134;52.020;4.714;2023-01-28T06:14:38;4.80;82.60
22787;DHT22;63134;52.020;4.714;2023-01-28T06:17:31;4.80;82.30
22787;DHT22;63134;52.020;4.714;2023-01-28T06:20:22;4.80;82.40
22787;DHT22;63134;52.020;4.714;2023-01-28T06:23:08;4.80;82.40
22787;DHT22;63134;52.020;4.714;2023-01-28T06:25:54;4.80;82.40
22787;DHT22;63134;52.020;4.714;2023-01-28T06:28:40;4.80;82.10
22787;DHT22;63134;52.020;4.714;2023-01-28T06:31:26;4.80;82.60
22787;DHT22;63134;52.020;4.714;2023-01-28T06:34:11;4.70;82.50
22787;DHT22;63134;52.020;4.714;2023-01-28T06:36:57;4.70;82.60
22787;DHT22;63134;52.020;4.714;2023-01-28T06:39:43;4.80;82.60
22787;DHT22;63134;52.020;4.714;2023-01-28T06:42:28;4.80;82.70
22787;DHT22;63134;52.020;4.714;2023-01-28T06:45:14;4.80;82.80
22787;DHT22;63134;52.020;4.714;2023-01-28T06:47:59;4.80;82.90
22787;DHT22;63134;52.020;4.714;2023-01-28T06:50:48;4.80;82.60
22787;DHT22;63134;52.020;4.714;2023-01-28T06:53:35;4.80;82.60
22787;DHT22;63134;52.020;4.714;2023-01-28T06:56:20;4.80;82.70
22787;DHT22;63134;52.020;4.714;2023-01-28T06:59:09;4.80;82.60
22787;DHT22;63134;52.020;4.714;2023-01-28T07:01:54;4.80;82.80
22787;DHT22;63134;52.020;4.714;2023-01-28T07:04:40;4.80;82.80
22787;DHT22;63134;52.020;4.714;2023-01-28T07:07:26;4.80;82.50
22787;DHT22;63134;52.020;4.714;2023-01-28T07:10:11;4.80;82.70
22787;DHT22;63134;52.020;4.714;2023-01-28T07:12:57;4.80;82.60
22787;DHT22;63134;52.020;4.714;2023-01-28T07:15:43;4.80;82.40
22787;DHT22;63134;52.020;4.714;2023-01-28T07:18:29;4.80;82.50
22787;DHT22;63134;52.020;4.714;2023-01-28T07:21:14;4.70;82.10
22787;DHT22;63134;52.020;4.714;2023-01-28T07:23:59;4.70;82.20
22787;DHT22;63134;52.020;4.714;2023-01-28T07:26:47;4.70;82.30
22787;DHT22;63134;52.020;4.714;2023-01-28T07:29:32;4.70;82.20
22787;DHT22;63134;52.020;4.714;2023-01-28T07:32:18;4.70;82.10
22787;DHT22;63134;52.020;4.714;2023-01-28T07:35:04;4.70;82.10
22787;DHT22;63134;52.020;4.714;2023-01-28T07:37:59;4.70;81.90
22787;DHT22;63134;52.020;4.714;2023-01-28T07:40:46;4.70;82.10
22787;DHT22;63134;52.020;4.714;2023-01-28T07:43:37;4.70;82.00
22787;DHT22;63134;52.020;4.714;2023-01-28T07:46:22;4.60;81.90
22787;DHT22;63134;52.020;4.714;2023-01-28T07:49:08;4.50;81.40
22787;DHT22;63134;52.020;4.714;2023-01-28T07:52:07;4.40;81.10
22787;DHT22;63134;52.020;4.714;2023-01-28T07:54:53;4.30;81.30
22787;DHT22;63134;52.020;4.714;2023-01-28T07:57:50;4.10;81.50
22787;DHT22;63134;52.020;4.714;2023-01-28T08:00:36;4.10;82.00
22787;DHT22;63134;52.020;4.714;2023-01-28T08:03:22;4.20;82.20
22787;DHT22;63134;52.020;4.714;2023-01-28T08:06:08;4.10;82.30
22787;DHT22;63134;52.020;4.714;2023-01-28T08:08:55;4.00;82.40
22787;DHT22;63134;52.020;4.714;2023-01-28T08:11:41;4.10;83.70
22787;DHT22;63134;52.020;4.714;2023-01-28T08:14:29;4.10;83.10
22787;DHT22;63134;52.020;4.714;2023-01-28T08:17:15;4.10;83.40
22787;DHT22;63134;52.020;4.714;2023-01-28T08:20:00;4.20;83.50
22787;DHT22;63134;52.020;4.714;2023-01-28T08:22:46;4.30;83.70
22787;DHT22;63134;52.020;4.714;2023-01-28T08:25:32;4.30;83.50
22787;DHT22;63134;52.020;4.714;2023-01-28T08:28:18;4.40;83.70
22787;DHT22;63134;52.020;4.714;2023-01-28T08:31:04;4.40;83.60
22787;DHT22;63134;52.020;4.714;2023-01-28T08:33:50;4.50;83.70
22787;DHT22;63134;52.020;4.714;2023-01-28T08:36:35;4.50;83.70
22787;DHT22;63134;52.020;4.714;2023-01-28T08:39:20;4.60;84.50
22787;DHT22;63134;52.020;4.714;2023-01-28T08:42:06;4.60;83.10
22787;DHT22;63134;52.020;4.714;2023-01-28T08:44:52;4.50;82.50
22787;DHT22;63134;52.020;4.714;2023-01-28T08:47:49;4.40;82.20
22787;DHT22;63134;52.020;4.714;2023-01-28T08:50:36;4.30;82.10
22787;DHT22;63134;52.020;4.714;2023-01-28T08:53:23;4.20;82.90
22787;DHT22;63134;52.020;4.714;2023-01-28T08:56:08;4.10;82.30
22787;DHT22;63134;52.020;4.714;2023-01-28T08:58:54;4.00;82.60
22787;DHT22;63134;52.020;4.714;2023-01-28T09:01:40;4.00;82.90
22787;DHT22;63134;52.020;4.714;2023-01-28T09:04:25;4.00;83.20
22787;DHT22;63134;52.020;4.714;2023-01-28T09:07:12;4.00;83.20
22787;DHT22;63134;52.020;4.714;2023-01-28T09:09:58;3.90;83.50
22787;DHT22;63134;52.020;4.714;2023-01-28T09:12:44;3.90;83.50
22787;DHT22;63134;52.020;4.714;2023-01-28T09:15:29;3.90;83.50
22787;DHT22;63134;52.020;4.714;2023-01-28T09:18:15;3.90;83.70
22787;DHT22;63134;52.020;4.714;2023-01-28T09:21:04;3.90;84.80
22787;DHT22;63134;52.020;4.714;2023-01-28T09:23:49;3.90;84.40
22787;DHT22;63134;52.020;4.714;2023-01-28T09:26:35;4.10;85.10
22787;DHT22;63134;52.020;4.714;2023-01-28T09:29:20;4.30;85.70
22787;DHT22;63134;52.020;4.714;2023-01-28T09:32:06;4.50;86.20
22787;DHT22;63134;52.020;4.714;2023-01-28T09:34:51;4.70;86.00
22787;DHT22;63134;52.020;4.714;2023-01-28T09:37:37;4.80;85.40
22787;DHT22;63134;52.020;4.714;2023-01-28T09:40:32;4.90;84.80
22787;DHT22;63134;52.020;4.714;2023-01-28T09:46:37;4.90;83.70
22787;DHT22;63134;52.020;4.714;2023-01-28T09:49:40;4.90;83.50
22787;DHT22;63134;52.020;4.714;2023-01-28T09:52:48;4.90;83.60
22787;DHT22;63134;52.020;4.714;2023-01-28T09:55:38;5.00;83.40
22787;DHT22;63134;52.020;4.714;2023-01-28T09:58:25;4.90;83.10
22787;DHT22;63134;52.020;4.714;2023-01-28T10:01:28;4.90;83.10
22787;DHT22;63134;52.020;4.714;2023-01-28T10:07:33;5.00;82.90
22787;DHT22;63134;52.020;4.714;2023-01-28T10:10:26;5.00;82.60
22787;DHT22;63134;52.020;4.714;2023-01-28T10:13:36;4.90;82.50
22787;DHT22;63134;52.020;4.714;2023-01-28T10:16:34;4.90;82.50
22787;DHT22;63134;52.020;4.714;2023-01-28T10:19:26;4.90;82.40
22787;DHT22;63134;52.020;4.714;2023-01-28T10:22:17;4.90;82.60
22787;DHT22;63134;52.020;4.714;2023-01-28T10:25:07;4.90;82.50
22787;DHT22;63134;52.020;4.714;2023-01-28T10:28:00;5.00;82.40
22787;DHT22;63134;52.020;4.714;2023-01-28T10:30:47;5.00;82.40
22787;DHT22;63134;52.020;4.714;2023-01-28T10:33:37;5.00;82.30
22787;DHT22;63134;52.020;4.714;2023-01-28T10:36:24;5.00;82.20
22787;DHT22;63134;52.020;4.714;2023-01-28T10:39:15;5.10;82.30
22787;DHT22;63134;52.020;4.714;2023-01-28T10:42:07;5.10;82.30
22787;DHT22;63134;52.020;4.714;2023-01-28T10:45:01;5.20;82.20
22787;DHT22;63134;52.020;4.714;2023-01-28T10:47:53;5.30;82.30
22787;DHT22;63134;52.020;4.714;2023-01-28T10:50:49;5.40;82.00
22787;DHT22;63134;52.020;4.714;2023-01-28T10:53:44;5.40;81.60
22787;DHT22;63134;52.020;4.714;2023-01-28T10:56:31;5.50;81.60
22787;DHT22;63134;52.020;4.714;2023-01-28T11:02:28;5.60;81.20
22787;DHT22;63134;52.020;4.714;2023-01-28T11:05:28;5.70;81.20
22787;DHT22;63134;52.020;4.714;2023-01-28T11:08:15;5.80;80.90
22787;DHT22;63134;52.020;4.714;2023-01-28T11:11:01;5.90;80.90
22787;DHT22;63134;52.020;4.714;2023-01-28T11:13:50;6.10;81.00
22787;DHT22;63134;52.020;4.714;2023-01-28T11:16:38;6.20;81.00
22787;DHT22;63134;52.020;4.714;2023-01-28T11:19:30;6.40;80.50
22787;DHT22;63134;52.020;4.714;2023-01-28T11:22:37;6.60;80.50
22787;DHT22;63134;52.020;4.714;2023-01-28T11:25:30;7.00;80.50
22787;DHT22;63134;52.020;4.714;2023-01-28T11:28:19;7.40;80.40
22787;DHT22;63134;52.020;4.714;2023-01-28T11:31:06;8.10;79.60
22787;DHT22;63134;52.020;4.714;2023-01-28T11:34:00;8.80;78.60
22787;DHT22;63134;52.020;4.714;2023-01-28T11:36:50;9.50;79.00
22787;DHT22;63134;52.020;4.714;2023-01-28T11:39:36;10.20;78.60
22787;DHT22;63134;52.020;4.714;2023-01-28T11:42:21;11.00;76.90
22787;DHT22;63134;52.020;4.714;2023-01-28T11:45:16;11.70;76.30
22787;DHT22;63134;52.020;4.714;2023-01-28T11:51:06;13.20;73.40
22787;DHT22;63134;52.020;4.714;2023-01-28T11:57:30;14.70;69.80
22787;DHT22;63134;52.020;4.714;2023-01-28T12:00:43;15.40;65.30
22787;DHT22;63134;52.020;4.714;2023-01-28T12:04:06;16.10;62.70
22787;DHT22;63134;52.020;4.714;2023-01-28T12:16:42;18.80;51.70
22787;DHT22;63134;52.020;4.714;2023-01-28T12:22:42;19.90;44.60
22787;DHT22;63134;52.020;4.714;2023-01-28T12:29:04;21.00;41.10
22787;DHT22;63134;52.020;4.714;2023-01-28T12:32:27;21.20;38.20
22787;DHT22;63134;52.020;4.714;2023-01-28T12:35:57;21.20;37.50
22787;DHT22;63134;52.020;4.714;2023-01-28T12:39:25;21.80;36.70
22787;DHT22;63134;52.020;4.714;2023-01-28T12:42:09;22.50;36.80
22787;DHT22;63134;52.020;4.714;2023-01-28T12:48:17;24.20;33.40
22787;DHT22;63134;52.020;4.714;2023-01-28T12:51:13;25.00;31.80
22787;DHT22;63134;52.020;4.714;2023-01-28T12:56:53;25.80;30.10
22787;DHT22;63134;52.020;4.714;2023-01-28T13:03:55;25.10;28.20
22787;DHT22;63134;52.020;4.714;2023-01-28T13:06:26;24.60;28.80
22787;DHT22;63134;52.020;4.714;2023-01-28T13:09:24;24.80;29.40
22787;DHT22;63134;52.020;4.714;2023-01-28T13:12:10;25.60;28.60
22787;DHT22;63134;52.020;4.714;2023-01-28T13:14:59;25.30;28.00
22787;DHT22;63134;52.020;4.714;2023-01-28T13:17:59;25.10;27.80
22787;DHT22;63134;52.020;4.714;2023-01-28T13:20:50;24.70;27.60
22787;DHT22;63134;52.020;4.714;2023-01-28T13:23:47;24.00;28.10
22787;DHT22;63134;52.020;4.714;2023-01-28T13:29:31;23.80;29.20
22787;DHT22;63134;52.020;4.714;2023-01-28T13:32:33;24.40;29.80
22787;DHT22;63134;52.020;4.714;2023-01-28T13:35:36;25.20;28.50
22787;DHT22;63134;52.020;4.714;2023-01-28T13:38:22;25.30;27.60
22787;DHT22;63134;52.020;4.714;2023-01-28T13:41:08;25.00;27.70
22787;DHT22;63134;52.020;4.714;2023-01-28T13:43:57;25.10;28.10
22787;DHT22;63134;52.020;4.714;2023-01-28T13:46:46;25.40;27.40
22787;DHT22;63134;52.020;4.714;2023-01-28T13:49:47;25.00;27.10
22787;DHT22;63134;52.020;4.714;2023-01-28T13:52:57;24.90;26.80
22787;DHT22;63134;52.020;4.714;2023-01-28T13:55:45;24.60;26.90
22787;DHT22;63134;52.020;4.714;2023-01-28T14:14:55;25.90;26.40
22787;DHT22;63134;52.020;4.714;2023-01-28T14:17:46;26.50;26.40
22787;DHT22;63134;52.020;4.714;2023-01-28T14:20:39;27.00;25.80
22787;DHT22;63134;52.020;4.714;2023-01-28T14:23:26;26.80;25.50
22787;DHT22;63134;52.020;4.714;2023-01-28T14:30:12;27.00;25.50
22787;DHT22;63134;52.020;4.714;2023-01-28T14:33:00;27.40;24.80
22787;DHT22;63134;52.020;4.714;2023-01-28T14:35:47;26.80;24.40
22787;DHT22;63134;52.020;4.714;2023-01-28T14:38:58;26.80;25.10
22787;DHT22;63134;52.020;4.714;2023-01-28T14:41:47;26.40;24.90
22787;DHT22;63134;52.020;4.714;2023-01-28T14:44:36;26.30;24.70
22787;DHT22;63134;52.020;4.714;2023-01-28T14:59:53;26.90;25.30
22787;DHT22;63134;52.020;4.714;2023-01-28T15:02:42;27.10;25.00
22787;DHT22;63134;52.020;4.714;2023-01-28T15:05:28;27.20;25.10
22787;DHT22;63134;52.020;4.714;2023-01-28T15:08:23;27.90;25.00
22787;DHT22;63134;52.020;4.714;2023-01-28T15:11:12;28.00;23.90
22787;DHT22;63134;52.020;4.714;2023-01-28T15:13:58;26.00;23.90
22787;DHT22;63134;52.020;4.714;2023-01-28T15:16:48;23.70;25.60
22787;DHT22;63134;52.020;4.714;2023-01-28T15:19:39;21.90;27.80
22787;DHT22;63134;52.020;4.714;2023-01-28T15:22:26;20.40;29.30
22787;DHT22;63134;52.020;4.714;2023-01-28T15:25:20;19.10;31.10
22787;DHT22;63134;52.020;4.714;2023-01-28T15:28:14;17.90;33.00
22787;DHT22;63134;52.020;4.714;2023-01-28T15:31:05;16.80;34.90
22787;DHT22;63134;52.020;4.714;2023-01-28T15:34:12;15.70;36.80
22787;DHT22;63134;52.020;4.714;2023-01-28T15:37:01;14.80;39.10
22787;DHT22;63134;52.020;4.714;2023-01-28T15:39:46;14.20;40.40
22787;DHT22;63134;52.020;4.714;2023-01-28T15:42:32;13.60;41.60
22787;DHT22;63134;52.020;4.714;2023-01-28T15:45:22;13.10;42.50
22787;DHT22;63134;52.020;4.714;2023-01-28T15:48:10;12.70;43.90
22787;DHT22;63134;52.020;4.714;2023-01-28T15:51:02;12.50;44.80
22787;DHT22;63134;52.020;4.714;2023-01-28T15:53:50;12.10;45.30
22787;DHT22;63134;52.020;4.714;2023-01-28T15:56:36;11.80;46.10
22787;DHT22;63134;52.020;4.714;2023-01-28T15:59:25;11.60;46.90
22787;DHT22;63134;52.020;4.714;2023-01-28T16:05:05;10.90;48.40
22787;DHT22;63134;52.020;4.714;2023-01-28T16:07:55;10.50;49.50
22787;DHT22;63134;52.020;4.714;2023-01-28T16:10:41;10.10;51.10
22787;DHT22;63134;52.020;4.714;2023-01-28T16:13:40;9.80;52.50
22787;DHT22;63134;52.020;4.714;2023-01-28T16:16:36;9.60;53.50
22787;DHT22;63134;52.020;4.714;2023-01-28T16:19:35;9.40;54.30
22787;DHT22;63134;52.020;4.714;2023-01-28T16:25:31;9.10;55.80
22787;DHT22;63134;52.020;4.714;2023-01-28T16:28:18;8.80;56.60
22787;DHT22;63134;52.020;4.714;2023-01-28T16:31:08;8.60;57.50
22787;DHT22;63134;52.020;4.714;2023-01-28T16:33:55;8.50;58.40
22787;DHT22;63134;52.020;4.714;2023-01-28T16:36:40;8.30;59.10
22787;DHT22;63134;52.020;4.714;2023-01-28T16:39:26;8.30;59.60
22787;DHT22;63134;52.020;4.714;2023-01-28T16:42:12;8.10;59.90
22787;DHT22;63134;52.020;4.714;2023-01-28T16:44:57;8.00;60.40
22787;DHT22;63134;52.020;4.714;2023-01-28T16:47:43;7.90;60.90
22787;DHT22;63134;52.020;4.714;2023-01-28T16:50:30;7.90;61.70
22787;DHT22;63134;52.020;4.714;2023-01-28T16:53:35;7.80;61.60
22787;DHT22;63134;52.020;4.714;2023-01-28T16:56:29;7.70;62.00
22787;DHT22;63134;52.020;4.714;2023-01-28T16:59:29;7.70;62.30
22787;DHT22;63134;52.020;4.714;2023-01-28T17:02:15;7.70;62.70
22787;DHT22;63134;52.020;4.714;2023-01-28T17:05:01;7.60;63.10
22787;DHT22;63134;52.020;4.714;2023-01-28T17:07:47;7.50;63.70
22787;DHT22;63134;52.020;4.714;2023-01-28T17:10:34;7.50;64.20
22787;DHT22;63134;52.020;4.714;2023-01-28T17:13:20;7.40;65.20
22787;DHT22;63134;52.020;4.714;2023-01-28T17:16:06;7.30;65.70
22787;DHT22;63134;52.020;4.714;2023-01-28T17:18:52;7.20;66.10
22787;DHT22;63134;52.020;4.714;2023-01-28T17:21:38;7.10;66.50
22787;DHT22;63134;52.020;4.714;2023-01-28T17:24:24;7.10;66.90
22787;DHT22;63134;52.020;4.714;2023-01-28T17:27:12;7.00;66.90
22787;DHT22;63134;52.020;4.714;2023-01-28T17:29:57;7.00;67.00
22787;DHT22;63134;52.020;4.714;2023-01-28T17:32:43;7.00;67.20
22787;DHT22;63134;52.020;4.714;2023-01-28T17:35:29;7.00;67.30
22787;DHT22;63134;52.020;4.714;2023-01-28T17:38:15;6.90;67.50
22787;DHT22;63134;52.020;4.714;2023-01-28T17:41:06;6.80;68.00
22787;DHT22;63134;52.020;4.714;2023-01-28T17:43:53;6.80;68.50
22787;DHT22;63134;52.020;4.714;2023-01-28T17:46:42;6.80;69.10
22787;DHT22;63134;52.020;4.714;2023-01-28T17:49:28;6.70;69.60
22787;DHT22;63134;52.020;4.714;2023-01-28T17:52:13;6.70;70.20
22787;DHT22;63134;52.020;4.714;2023-01-28T17:54:59;6.70;70.60
22787;DHT22;63134;52.020;4.714;2023-01-28T17:57:45;6.60;70.50
22787;DHT22;63134;52.020;4.714;2023-01-28T18:00:32;6.60;70.90
22787;DHT22;63134;52.020;4.714;2023-01-28T18:03:17;6.60;71.70
22787;DHT22;63134;52.020;4.714;2023-01-28T18:06:06;6.60;71.20
22787;DHT22;63134;52.020;4.714;2023-01-28T18:08:51;6.60;71.60
22787;DHT22;63134;52.020;4.714;2023-01-28T18:11:38;6.60;71.70
22787;DHT22;63134;52.020;4.714;2023-01-28T18:14:25;6.60;72.90
22787;DHT22;63134;52.020;4.714;2023-01-28T18:17:10;6.60;72.80
22787;DHT22;63134;52.020;4.714;2023-01-28T18:19:56;6.60;72.90
22787;DHT22;63134;52.020;4.714;2023-01-28T18:22:42;6.50;73.30
22787;DHT22;63134;52.020;4.714;2023-01-28T18:25:28;6.50;73.70
22787;DHT22;63134;52.020;4.714;2023-01-28T18:28:13;6.50;73.80
22787;DHT22;63134;52.020;4.714;2023-01-28T18:31:06;6.50;74.10
22787;DHT22;63134;52.020;4.714;2023-01-28T18:33:52;6.50;74.30
22787;DHT22;63134;52.020;4.714;2023-01-28T18:36:38;6.50;74.40
22787;DHT22;63134;52.020;4.714;2023-01-28T18:39:27;6.50;74.70
22787;DHT22;63134;52.020;4.714;2023-01-28T18:42:14;6.50;75.00
22787;DHT22;63134;52.020;4.714;2023-01-28T18:45:00;6.50;75.00
22787;DHT22;63134;52.020;4.714;2023-01-28T18:47:45;6.50;75.10
22787;DHT22;63134;52.020;4.714;2023-01-28T18:50:32;6.50;75.30
22787;DHT22;63134;52.020;4.714;2023-01-28T18:53:19;6.40;75.30
22787;DHT22;63134;52.020;4.714;2023-01-28T18:56:08;6.40;75.50
22787;DHT22;63134;52.020;4.714;2023-01-28T18:58:57;6.40;75.60
22787;DHT22;63134;52.020;4.714;2023-01-28T19:01:43;6.40;75.80
22787;DHT22;63134;52.020;4.714;2023-01-28T19:04:32;6.40;75.80
22787;DHT22;63134;52.020;4.714;2023-01-28T19:07:17;6.40;76.00
22787;DHT22;63134;52.020;4.714;2023-01-28T19:10:03;6.40;76.30
22787;DHT22;63134;52.020;4.714;2023-01-28T19:12:49;6.40;76.60
22787;DHT22;63134;52.020;4.714;2023-01-28T19:15:34;6.40;76.60
22787;DHT22;63134;52.020;4.714;2023-01-28T19:18:22;6.40;76.50
22787;DHT22;63134;52.020;4.714;2023-01-28T19:21:08;6.40;76.60
22787;DHT22;63134;52.020;4.714;2023-01-28T19:23:56;6.40;76.40
22787;DHT22;63134;52.020;4.714;2023-01-28T19:26:42;6.40;76.50
22787;DHT22;63134;52.020;4.714;2023-01-28T19:29:30;6.40;76.70
22787;DHT22;63134;52.020;4.714;2023-01-28T19:32:15;6.40;76.70
22787;DHT22;63134;52.020;4.714;2023-01-28T19:35:01;6.40;76.80
22787;DHT22;63134;52.020;4.714;2023-01-28T19:37:47;6.40;76.90
22787;DHT22;63134;52.020;4.714;2023-01-28T19:40:32;6.40;77.10
22787;DHT22;63134;52.020;4.714;2023-01-28T19:43:19;6.30;77.30
22787;DHT22;63134;52.020;4.714;2023-01-28T19:46:08;6.30;77.50
22787;DHT22;63134;52.020;4.714;2023-01-28T19:48:56;6.30;77.70